sensor_id;sensor_type;location;lat;lon;timestamp;P1;durP1;ratioP1;P2;durP2;ratioP2
62941;SDS011;49042;47.318;19.874;2022-08-19T00:02:16;10.82;;;6.03;;
62941;SDS011;49042;47.318;19.874;2022-08-19T00:05:18;8.95;;;6.20;;
62941;SDS011;49042;47.318;19.874;2022-08-19T00:08:21;10.07;;;6.75;;
62941;SDS011;49042;47.318;19.874;2022-08-19T00:11:23;9.25;;;6.18;;
62941;SDS011;49042;47.318;19.874;2022-08-19T00:14:27;17.48;;;6.60;;
62941;SDS011;49042;47.318;19.874;2022-08-19T00:17:33;10.32;;;6.68;;
62941;SDS011;49042;47.318;19.874;2022-08-19T00:20:35;14.60;;;6.93;;
62941;SDS011;49042;47.318;19.874;2022-08-19T00:23:37;13.65;;;6.45;;
62941;SDS011;49042;47.318;19.874;2022-08-19T00:26:39;12.27;;;6.45;;
62941;SDS011;49042;47.318;19.874;2022-08-19T00:29:42;11.35;;;6.28;;
62941;SDS011;49042;47.318;19.874;2022-08-19T00:32:44;11.48;;;6.30;;
62941;SDS011;49042;47.318;19.874;2022-08-19T00:35:46;12.15;;;6.90;;
62941;SDS011;49042;47.318;19.874;2022-08-19T00:38:56;13.48;;;6.95;;
62941;SDS011;49042;47.318;19.874;2022-08-19T00:41:58;15.77;;;6.90;;
62941;SDS011;49042;47.318;19.874;2022-08-19T00:45:00;8.38;;;5.90;;
62941;SDS011;49042;47.318;19.874;2022-08-19T00:48:02;16.45;;;5.95;;
62941;SDS011;49042;47.318;19.874;2022-08-19T00:51:15;11.15;;;5.93;;
62941;SDS011;49042;47.318;19.874;2022-08-19T00:54:19;9.98;;;6.35;;
62941;SDS011;49042;47.318;19.874;2022-08-19T00:57:35;12.15;;;5.75;;
62941;SDS011;49042;47.318;19.874;2022-08-19T01:00:40;11.93;;;6.50;;
62941;SDS011;49042;47.318;19.874;2022-08-19T01:03:42;13.85;;;6.37;;
62941;SDS011;49042;47.318;19.874;2022-08-19T01:06:57;6.53;;;5.78;;
62941;SDS011;49042;47.318;19.874;2022-08-19T01:10:00;8.40;;;5.87;;
62941;SDS011;49042;47.318;19.874;2022-08-19T01:13:03;12.05;;;6.25;;
62941;SDS011;49042;47.318;19.874;2022-08-19T01:16:07;11.93;;;6.43;;
62941;SDS011;49042;47.318;19.874;2022-08-19T01:19:19;11.05;;;6.35;;
62941;SDS011;49042;47.318;19.874;2022-08-19T01:22:29;11.02;;;6.37;;
62941;SDS011;49042;47.318;19.874;2022-08-19T01:25:50;12.68;;;6.57;;
62941;SDS011;49042;47.318;19.874;2022-08-19T01:28:56;12.25;;;6.57;;
62941;SDS011;49042;47.318;19.874;2022-08-19T01:32:01;13.15;;;6.25;;
62941;SDS011;49042;47.318;19.874;2022-08-19T01:35:03;14.27;;;5.95;;
62941;SDS011;49042;47.318;19.874;2022-08-19T01:38:06;8.05;;;6.05;;
62941;SDS011;49042;47.318;19.874;2022-08-19T01:41:12;9.60;;;6.50;;
62941;SDS011;49042;47.318;19.874;2022-08-19T01:44:14;10.23;;;6.10;;
62941;SDS011;49042;47.318;19.874;2022-08-19T01:47:19;10.55;;;6.03;;
62941;SDS011;49042;47.318;19.874;2022-08-19T01:50:21;11.88;;;6.78;;
62941;SDS011;49042;47.318;19.874;2022-08-19T01:53:24;14.27;;;6.25;;
62941;SDS011;49042;47.318;19.874;2022-08-19T01:56:33;11.57;;;6.28;;
62941;SDS011;49042;47.318;19.874;2022-08-19T01:59:35;18.25;;;6.50;;
62941;SDS011;49042;47.318;19.874;2022-08-19T02:02:37;19.67;;;6.47;;
62941;SDS011;49042;47.318;19.874;2022-08-19T02:05:40;9.93;;;6.55;;
62941;SDS011;49042;47.318;19.874;2022-08-19T02:08:43;12.68;;;6.47;;
62941;SDS011;49042;47.318;19.874;2022-08-19T02:11:48;9.13;;;6.32;;
62941;SDS011;49042;47.318;19.874;2022-08-19T02:14:49;11.85;;;6.75;;
62941;SDS011;49042;47.318;19.874;2022-08-19T02:17:51;11.68;;;7.32;;
62941;SDS011;49042;47.318;19.874;2022-08-19T02:20:53;12.40;;;6.65;;
62941;SDS011;49042;47.318;19.874;2022-08-19T02:23:55;16.98;;;7.30;;
62941;SDS011;49042;47.318;19.874;2022-08-19T02:26:57;9.18;;;6.25;;
62941;SDS011;49042;47.318;19.874;2022-08-19T02:30:00;11.35;;;6.20;;
62941;SDS011;49042;47.318;19.874;2022-08-19T02:33:02;8.82;;;6.18;;
62941;SDS011;49042;47.318;19.874;2022-08-19T02:36:05;16.33;;;6.65;;
62941;SDS011;49042;47.318;19.874;2022-08-19T02:39:08;10.35;;;6.68;;
62941;SDS011;49042;47.318;19.874;2022-08-19T02:42:10;11.35;;;7.28;;
62941;SDS011;49042;47.318;19.874;2022-08-19T02:45:13;13.75;;;6.93;;
62941;SDS011;49042;47.318;19.874;2022-08-19T02:48:16;12.98;;;6.57;;
62941;SDS011;49042;47.318;19.874;2022-08-19T02:51:27;12.52;;;6.68;;
62941;SDS011;49042;47.318;19.874;2022-08-19T02:54:32;8.10;;;6.00;;
62941;SDS011;49042;47.318;19.874;2022-08-19T02:57:34;10.40;;;6.97;;
62941;SDS011;49042;47.318;19.874;2022-08-19T03:00:41;15.10;;;6.55;;
62941;SDS011;49042;47.318;19.874;2022-08-19T03:03:44;9.32;;;6.53;;
62941;SDS011;49042;47.318;19.874;2022-08-19T03:06:48;9.93;;;6.43;;
62941;SDS011;49042;47.318;19.874;2022-08-19T03:09:50;17.60;;;6.32;;
62941;SDS011;49042;47.318;19.874;2022-08-19T03:12:52;10.50;;;6.90;;
62941;SDS011;49042;47.318;19.874;2022-08-19T03:15:54;8.57;;;6.43;;
62941;SDS011;49042;47.318;19.874;2022-08-19T03:18:56;10.40;;;6.37;;
62941;SDS011;49042;47.318;19.874;2022-08-19T03:22:01;12.05;;;7.05;;
62941;SDS011;49042;47.318;19.874;2022-08-19T03:25:03;11.73;;;6.28;;
62941;SDS011;49042;47.318;19.874;2022-08-19T03:28:06;7.37;;;6.15;;
62941;SDS011;49042;47.318;19.874;2022-08-19T03:31:12;17.15;;;7.95;;
62941;SDS011;49042;47.318;19.874;2022-08-19T03:34:36;12.77;;;7.28;;
62941;SDS011;49042;47.318;19.874;2022-08-19T03:37:39;16.27;;;6.95;;
62941;SDS011;49042;47.318;19.874;2022-08-19T03:40:41;12.25;;;6.35;;
62941;SDS011;49042;47.318;19.874;2022-08-19T03:43:44;14.20;;;6.87;;
62941;SDS011;49042;47.318;19.874;2022-08-19T03:46:55;8.60;;;6.03;;
62941;SDS011;49042;47.318;19.874;2022-08-19T03:49:59;11.48;;;6.57;;
62941;SDS011;49042;47.318;19.874;2022-08-19T03:53:01;12.00;;;6.72;;
62941;SDS011;49042;47.318;19.874;2022-08-19T03:56:02;12.65;;;6.60;;
62941;SDS011;49042;47.318;19.874;2022-08-19T03:59:05;12.00;;;6.53;;
62941;SDS011;49042;47.318;19.874;2022-08-19T04:02:10;12.15;;;7.00;;
62941;SDS011;49042;47.318;19.874;2022-08-19T04:05:13;12.40;;;6.85;;
62941;SDS011;49042;47.318;19.874;2022-08-19T04:08:16;11.43;;;6.65;;
62941;SDS011;49042;47.318;19.874;2022-08-19T04:11:22;10.48;;;6.32;;
62941;SDS011;49042;47.318;19.874;2022-08-19T04:14:44;12.88;;;5.93;;
62941;SDS011;49042;47.318;19.874;2022-08-19T04:17:46;10.38;;;6.55;;
62941;SDS011;49042;47.318;19.874;2022-08-19T04:20:47;9.93;;;6.43;;
62941;SDS011;49042;47.318;19.874;2022-08-19T04:23:51;8.25;;;6.25;;
62941;SDS011;49042;47.318;19.874;2022-08-19T04:26:56;9.88;;;6.47;;
62941;SDS011;49042;47.318;19.874;2022-08-19T04:29:57;14.00;;;5.85;;
62941;SDS011;49042;47.318;19.874;2022-08-19T04:32:59;8.60;;;6.20;;
62941;SDS011;49042;47.318;19.874;2022-08-19T04:36:01;8.48;;;5.90;;
62941;SDS011;49042;47.318;19.874;2022-08-19T04:39:04;35.30;;;7.12;;
62941;SDS011;49042;47.318;19.874;2022-08-19T04:42:08;11.27;;;5.95;;
62941;SDS011;49042;47.318;19.874;2022-08-19T04:45:31;7.93;;;6.28;;
62941;SDS011;49042;47.318;19.874;2022-08-19T04:48:44;10.38;;;6.20;;
62941;SDS011;49042;47.318;19.874;2022-08-19T04:51:50;18.65;;;10.65;;
62941;SDS011;49042;47.318;19.874;2022-08-19T04:54:55;13.43;;;6.60;;
62941;SDS011;49042;47.318;19.874;2022-08-19T04:57:57;8.50;;;6.45;;
62941;SDS011;49042;47.318;19.874;2022-08-19T05:01:00;9.93;;;6.12;;
62941;SDS011;49042;47.318;19.874;2022-08-19T05:04:03;8.93;;;6.00;;
62941;SDS011;49042;47.318;19.874;2022-08-19T05:07:07;9.90;;;5.50;;
62941;SDS011;49042;47.318;19.874;2022-08-19T05:10:09;8.52;;;6.18;;
62941;SDS011;49042;47.318;19.874;2022-08-19T05:13:11;17.83;;;6.60;;
62941;SDS011;49042;47.318;19.874;2022-08-19T05:16:13;14.57;;;6.87;;
62941;SDS011;49042;47.318;19.874;2022-08-19T05:19:15;12.27;;;6.55;;
62941;SDS011;49042;47.318;19.874;2022-08-19T05:22:36;9.18;;;5.95;;
62941;SDS011;49042;47.318;19.874;2022-08-19T05:25:39;10.43;;;6.20;;
62941;SDS011;49042;47.318;19.874;2022-08-19T05:28:41;11.57;;;6.40;;
62941;SDS011;49042;47.318;19.874;2022-08-19T05:31:43;14.90;;;6.30;;
62941;SDS011;49042;47.318;19.874;2022-08-19T05:34:46;10.45;;;5.97;;
62941;SDS011;49042;47.318;19.874;2022-08-19T05:37:48;11.65;;;6.18;;
62941;SDS011;49042;47.318;19.874;2022-08-19T05:40:55;14.15;;;5.78;;
62941;SDS011;49042;47.318;19.874;2022-08-19T05:43:57;8.05;;;5.75;;
62941;SDS011;49042;47.318;19.874;2022-08-19T05:47:02;6.53;;;5.80;;
62941;SDS011;49042;47.318;19.874;2022-08-19T05:50:06;11.73;;;5.78;;
62941;SDS011;49042;47.318;19.874;2022-08-19T05:53:08;9.05;;;6.05;;
62941;SDS011;49042;47.318;19.874;2022-08-19T05:56:12;13.55;;;6.30;;
62941;SDS011;49042;47.318;19.874;2022-08-19T05:59:17;8.45;;;5.28;;
62941;SDS011;49042;47.318;19.874;2022-08-19T06:02:28;14.20;;;5.37;;
62941;SDS011;49042;47.318;19.874;2022-08-19T06:05:32;12.25;;;5.90;;
62941;SDS011;49042;47.318;19.874;2022-08-19T06:08:48;11.65;;;5.82;;
62941;SDS011;49042;47.318;19.874;2022-08-19T06:11:53;9.13;;;5.72;;
62941;SDS011;49042;47.318;19.874;2022-08-19T06:14:57;12.32;;;5.82;;
62941;SDS011;49042;47.318;19.874;2022-08-19T06:18:01;10.50;;;5.50;;
62941;SDS011;49042;47.318;19.874;2022-08-19T06:21:03;8.10;;;5.62;;
62941;SDS011;49042;47.318;19.874;2022-08-19T06:24:06;9.50;;;5.68;;
62941;SDS011;49042;47.318;19.874;2022-08-19T06:27:10;11.23;;;5.70;;
62941;SDS011;49042;47.318;19.874;2022-08-19T06:30:11;12.30;;;5.90;;
62941;SDS011;49042;47.318;19.874;2022-08-19T06:33:13;12.57;;;5.70;;
62941;SDS011;49042;47.318;19.874;2022-08-19T06:36:23;7.68;;;5.57;;
62941;SDS011;49042;47.318;19.874;2022-08-19T06:39:34;7.65;;;5.22;;
62941;SDS011;49042;47.318;19.874;2022-08-19T06:42:39;6.97;;;5.30;;
62941;SDS011;49042;47.318;19.874;2022-08-19T06:45:54;16.67;;;5.55;;
62941;SDS011;49042;47.318;19.874;2022-08-19T06:48:57;10.15;;;5.62;;
62941;SDS011;49042;47.318;19.874;2022-08-19T06:51:59;10.48;;;5.37;;
62941;SDS011;49042;47.318;19.874;2022-08-19T06:55:02;10.70;;;5.30;;
62941;SDS011;49042;47.318;19.874;2022-08-19T06:58:06;8.38;;;5.70;;
62941;SDS011;49042;47.318;19.874;2022-08-19T07:01:09;9.63;;;5.55;;
62941;SDS011;49042;47.318;19.874;2022-08-19T07:04:12;10.20;;;5.03;;
62941;SDS011;49042;47.318;19.874;2022-08-19T07:07:15;9.48;;;5.10;;
62941;SDS011;49042;47.318;19.874;2022-08-19T07:10:20;10.23;;;4.85;;
62941;SDS011;49042;47.318;19.874;2022-08-19T07:13:23;6.65;;;4.80;;
62941;SDS011;49042;47.318;19.874;2022-08-19T07:16:25;10.75;;;5.10;;
62941;SDS011;49042;47.318;19.874;2022-08-19T07:19:29;11.12;;;4.90;;
62941;SDS011;49042;47.318;19.874;2022-08-19T07:22:33;10.88;;;4.62;;
62941;SDS011;49042;47.318;19.874;2022-08-19T07:25:37;8.38;;;4.70;;
62941;SDS011;49042;47.318;19.874;2022-08-19T07:28:42;10.55;;;4.80;;
62941;SDS011;49042;47.318;19.874;2022-08-19T07:31:46;6.70;;;4.72;;
62941;SDS011;49042;47.318;19.874;2022-08-19T07:34:51;8.02;;;4.40;;
62941;SDS011;49042;47.318;19.874;2022-08-19T07:37:53;7.03;;;4.45;;
62941;SDS011;49042;47.318;19.874;2022-08-19T07:40:55;9.23;;;4.80;;
62941;SDS011;49042;47.318;19.874;2022-08-19T07:43:58;11.15;;;4.62;;
62941;SDS011;49042;47.318;19.874;2022-08-19T07:47:04;6.68;;;4.40;;
62941;SDS011;49042;47.318;19.874;2022-08-19T07:50:08;10.60;;;4.50;;
62941;SDS011;49042;47.318;19.874;2022-08-19T07:53:12;8.82;;;4.57;;
62941;SDS011;49042;47.318;19.874;2022-08-19T07:56:14;9.90;;;4.70;;
62941;SDS011;49042;47.318;19.874;2022-08-19T07:59:17;7.00;;;3.78;;
62941;SDS011;49042;47.318;19.874;2022-08-19T08:02:19;6.93;;;4.35;;
62941;SDS011;49042;47.318;19.874;2022-08-19T08:05:20;8.55;;;4.10;;
62941;SDS011;49042;47.318;19.874;2022-08-19T08:08:44;7.87;;;4.00;;
62941;SDS011;49042;47.318;19.874;2022-08-19T08:12:08;15.30;;;4.70;;
62941;SDS011;49042;47.318;19.874;2022-08-19T08:15:35;9.15;;;3.75;;
62941;SDS011;49042;47.318;19.874;2022-08-19T08:18:43;8.18;;;4.00;;
62941;SDS011;49042;47.318;19.874;2022-08-19T08:21:57;5.18;;;4.05;;
62941;SDS011;49042;47.318;19.874;2022-08-19T08:25:08;7.62;;;3.97;;
62941;SDS011;49042;47.318;19.874;2022-08-19T08:28:15;7.28;;;4.00;;
62941;SDS011;49042;47.318;19.874;2022-08-19T08:31:18;11.38;;;3.87;;
62941;SDS011;49042;47.318;19.874;2022-08-19T08:34:20;7.62;;;3.60;;
62941;SDS011;49042;47.318;19.874;2022-08-19T08:37:22;6.00;;;3.17;;
62941;SDS011;49042;47.318;19.874;2022-08-19T08:43:48;9.88;;;4.07;;
62941;SDS011;49042;47.318;19.874;2022-08-19T08:46:54;7.62;;;3.78;;
62941;SDS011;49042;47.318;19.874;2022-08-19T08:50:07;3.35;;;2.85;;
62941;SDS011;49042;47.318;19.874;2022-08-19T08:53:16;5.57;;;2.78;;
62941;SDS011;49042;47.318;19.874;2022-08-19T08:56:31;6.00;;;3.22;;
62941;SDS011;49042;47.318;19.874;2022-08-19T08:59:34;8.02;;;3.40;;
62941;SDS011;49042;47.318;19.874;2022-08-19T09:02:38;5.60;;;2.83;;
62941;SDS011;49042;47.318;19.874;2022-08-19T09:06:18;6.90;;;3.00;;
62941;SDS011;49042;47.318;19.874;2022-08-19T09:16:13;6.47;;;2.70;;
62941;SDS011;49042;47.318;19.874;2022-08-19T09:19:21;6.95;;;2.40;;
62941;SDS011;49042;47.318;19.874;2022-08-19T09:22:23;6.85;;;2.60;;
62941;SDS011;49042;47.318;19.874;2022-08-19T09:25:27;7.03;;;2.85;;
62941;SDS011;49042;47.318;19.874;2022-08-19T09:28:29;8.43;;;2.70;;
62941;SDS011;49042;47.318;19.874;2022-08-19T09:31:32;5.53;;;2.70;;
62941;SDS011;49042;47.318;19.874;2022-08-19T09:34:34;6.68;;;2.62;;
62941;SDS011;49042;47.318;19.874;2022-08-19T09:37:44;7.28;;;2.97;;
62941;SDS011;49042;47.318;19.874;2022-08-19T09:40:45;4.20;;;2.80;;
62941;SDS011;49042;47.318;19.874;2022-08-19T09:43:49;6.85;;;2.67;;
62941;SDS011;49042;47.318;19.874;2022-08-19T09:46:53;3.83;;;2.90;;
62941;SDS011;49042;47.318;19.874;2022-08-19T09:49:55;9.00;;;2.87;;
62941;SDS011;49042;47.318;19.874;2022-08-19T09:52:58;6.97;;;2.80;;
62941;SDS011;49042;47.318;19.874;2022-08-19T09:56:01;9.38;;;2.67;;
62941;SDS011;49042;47.318;19.874;2022-08-19T09:59:04;5.60;;;2.70;;
62941;SDS011;49042;47.318;19.874;2022-08-19T10:02:06;3.72;;;2.60;;
62941;SDS011;49042;47.318;19.874;2022-08-19T10:05:11;8.90;;;2.62;;
62941;SDS011;49042;47.318;19.874;2022-08-19T10:08:33;6.82;;;2.90;;
62941;SDS011;49042;47.318;19.874;2022-08-19T10:11:39;9.80;;;2.53;;
62941;SDS011;49042;47.318;19.874;2022-08-19T10:14:52;7.37;;;2.42;;
62941;SDS011;49042;47.318;19.874;2022-08-19T10:17:55;6.93;;;2.60;;
62941;SDS011;49042;47.318;19.874;2022-08-19T10:21:03;12.50;;;3.10;;
62941;SDS011;49042;47.318;19.874;2022-08-19T10:24:12;4.10;;;2.65;;
62941;SDS011;49042;47.318;19.874;2022-08-19T10:27:13;6.40;;;2.80;;
62941;SDS011;49042;47.318;19.874;2022-08-19T10:30:16;13.70;;;3.10;;
62941;SDS011;49042;47.318;19.874;2022-08-19T10:33:18;7.93;;;2.95;;
62941;SDS011;49042;47.318;19.874;2022-08-19T10:36:40;7.12;;;2.90;;
62941;SDS011;49042;47.318;19.874;2022-08-19T10:39:57;7.45;;;2.83;;
62941;SDS011;49042;47.318;19.874;2022-08-19T10:42:59;7.70;;;2.85;;
62941;SDS011;49042;47.318;19.874;2022-08-19T10:46:01;9.32;;;2.87;;
62941;SDS011;49042;47.318;19.874;2022-08-19T10:49:04;8.27;;;3.22;;
62941;SDS011;49042;47.318;19.874;2022-08-19T10:52:06;5.37;;;3.40;;
62941;SDS011;49042;47.318;19.874;2022-08-19T10:55:39;4.80;;;3.28;;
62941;SDS011;49042;47.318;19.874;2022-08-19T10:59:00;6.28;;;3.28;;
62941;SDS011;49042;47.318;19.874;2022-08-19T11:02:03;9.10;;;3.50;;
62941;SDS011;49042;47.318;19.874;2022-08-19T11:05:07;5.90;;;3.80;;
62941;SDS011;49042;47.318;19.874;2022-08-19T11:08:13;11.02;;;3.60;;
62941;SDS011;49042;47.318;19.874;2022-08-19T11:11:23;5.30;;;3.50;;
62941;SDS011;49042;47.318;19.874;2022-08-19T11:14:25;12.63;;;3.72;;
62941;SDS011;49042;47.318;19.874;2022-08-19T11:17:32;9.20;;;3.12;;
62941;SDS011;49042;47.318;19.874;2022-08-19T11:20:34;7.93;;;3.40;;
62941;SDS011;49042;47.318;19.874;2022-08-19T11:23:36;10.23;;;3.50;;
62941;SDS011;49042;47.318;19.874;2022-08-19T11:26:38;6.93;;;3.17;;
62941;SDS011;49042;47.318;19.874;2022-08-19T11:29:42;9.68;;;3.20;;
62941;SDS011;49042;47.318;19.874;2022-08-19T11:32:43;11.05;;;3.58;;
62941;SDS011;49042;47.318;19.874;2022-08-19T11:35:49;10.25;;;3.62;;
62941;SDS011;49042;47.318;19.874;2022-08-19T11:38:51;10.02;;;3.62;;
62941;SDS011;49042;47.318;19.874;2022-08-19T11:41:54;6.03;;;3.12;;
62941;SDS011;49042;47.318;19.874;2022-08-19T11:44:56;16.92;;;3.87;;
62941;SDS011;49042;47.318;19.874;2022-08-19T11:47:58;11.93;;;3.42;;
62941;SDS011;49042;47.318;19.874;2022-08-19T11:51:03;12.20;;;3.72;;
62941;SDS011;49042;47.318;19.874;2022-08-19T11:54:07;7.93;;;3.17;;
62941;SDS011;49042;47.318;19.874;2022-08-19T11:57:09;7.68;;;3.37;;
62941;SDS011;49042;47.318;19.874;2022-08-19T12:00:11;7.20;;;3.37;;
62941;SDS011;49042;47.318;19.874;2022-08-19T12:03:14;7.62;;;3.50;;
62941;SDS011;49042;47.318;19.874;2022-08-19T12:06:17;8.85;;;3.20;;
62941;SDS011;49042;47.318;19.874;2022-08-19T12:09:24;13.85;;;3.60;;
62941;SDS011;49042;47.318;19.874;2022-08-19T12:12:31;6.25;;;3.30;;
62941;SDS011;49042;47.318;19.874;2022-08-19T12:15:36;8.90;;;3.45;;
62941;SDS011;49042;47.318;19.874;2022-08-19T12:18:39;11.10;;;3.90;;
62941;SDS011;49042;47.318;19.874;2022-08-19T12:21:44;7.05;;;3.17;;
62941;SDS011;49042;47.318;19.874;2022-08-19T12:24:45;12.48;;;3.50;;
62941;SDS011;49042;47.318;19.874;2022-08-19T12:27:47;8.38;;;3.60;;
62941;SDS011;49042;47.318;19.874;2022-08-19T12:30:57;8.85;;;3.20;;
62941;SDS011;49042;47.318;19.874;2022-08-19T12:33:59;9.30;;;3.60;;
62941;SDS011;49042;47.318;19.874;2022-08-19T12:37:04;6.65;;;3.30;;
62941;SDS011;49042;47.318;19.874;2022-08-19T12:40:07;5.32;;;3.17;;
62941;SDS011;49042;47.318;19.874;2022-08-19T12:43:10;10.77;;;3.78;;
62941;SDS011;49042;47.318;19.874;2022-08-19T12:46:12;10.85;;;3.25;;
62941;SDS011;49042;47.318;19.874;2022-08-19T12:49:18;6.45;;;3.10;;
62941;SDS011;49042;47.318;19.874;2022-08-19T12:52:40;7.22;;;3.20;;
62941;SDS011;49042;47.318;19.874;2022-08-19T12:55:43;13.30;;;3.30;;
62941;SDS011;49042;47.318;19.874;2022-08-19T12:58:45;5.15;;;2.90;;
62941;SDS011;49042;47.318;19.874;2022-08-19T13:01:49;7.35;;;3.12;;
62941;SDS011;49042;47.318;19.874;2022-08-19T13:04:51;6.95;;;3.05;;
62941;SDS011;49042;47.318;19.874;2022-08-19T13:07:53;6.55;;;2.83;;
62941;SDS011;49042;47.318;19.874;2022-08-19T13:10:57;13.40;;;3.08;;
62941;SDS011;49042;47.318;19.874;2022-08-19T13:13:59;6.05;;;2.80;;
62941;SDS011;49042;47.318;19.874;2022-08-19T13:17:03;8.60;;;3.15;;
62941;SDS011;49042;47.318;19.874;2022-08-19T13:20:06;14.30;;;3.20;;
62941;SDS011;49042;47.318;19.874;2022-08-19T13:23:10;7.70;;;2.72;;
62941;SDS011;49042;47.318;19.874;2022-08-19T13:26:12;7.68;;;2.83;;
62941;SDS011;49042;47.318;19.874;2022-08-19T13:29:14;7.25;;;3.28;;
62941;SDS011;49042;47.318;19.874;2022-08-19T13:32:34;6.82;;;2.80;;
62941;SDS011;49042;47.318;19.874;2022-08-19T13:35:58;5.87;;;2.87;;
62941;SDS011;49042;47.318;19.874;2022-08-19T13:39:02;10.32;;;3.25;;
62941;SDS011;49042;47.318;19.874;2022-08-19T13:42:04;14.75;;;3.30;;
62941;SDS011;49042;47.318;19.874;2022-08-19T13:45:07;7.55;;;3.05;;
62941;SDS011;49042;47.318;19.874;2022-08-19T13:48:10;6.00;;;3.00;;
62941;SDS011;49042;47.318;19.874;2022-08-19T13:51:11;6.07;;;2.80;;
62941;SDS011;49042;47.318;19.874;2022-08-19T13:54:13;7.62;;;2.97;;
62941;SDS011;49042;47.318;19.874;2022-08-19T13:57:15;24.70;;;3.97;;
62941;SDS011;49042;47.318;19.874;2022-08-19T14:00:17;6.15;;;2.80;;
62941;SDS011;49042;47.318;19.874;2022-08-19T14:03:20;18.62;;;4.15;;
62941;SDS011;49042;47.318;19.874;2022-08-19T14:06:22;7.03;;;2.78;;
62941;SDS011;49042;47.318;19.874;2022-08-19T14:09:24;11.57;;;3.08;;
62941;SDS011;49042;47.318;19.874;2022-08-19T14:12:26;9.02;;;2.62;;
62941;SDS011;49042;47.318;19.874;2022-08-19T14:15:29;9.65;;;2.97;;
62941;SDS011;49042;47.318;19.874;2022-08-19T14:18:31;7.80;;;2.60;;
62941;SDS011;49042;47.318;19.874;2022-08-19T14:21:33;11.60;;;3.00;;
62941;SDS011;49042;47.318;19.874;2022-08-19T14:24:41;9.60;;;2.70;;
62941;SDS011;49042;47.318;19.874;2022-08-19T14:27:48;9.30;;;2.95;;
62941;SDS011;49042;47.318;19.874;2022-08-19T14:30:50;8.15;;;3.45;;
62941;SDS011;49042;47.318;19.874;2022-08-19T14:33:56;8.93;;;3.00;;
62941;SDS011;49042;47.318;19.874;2022-08-19T14:36:58;9.73;;;2.75;;
62941;SDS011;49042;47.318;19.874;2022-08-19T14:40:02;10.50;;;3.03;;
62941;SDS011;49042;47.318;19.874;2022-08-19T14:43:05;10.35;;;2.97;;
62941;SDS011;49042;47.318;19.874;2022-08-19T14:46:06;7.90;;;3.00;;
62941;SDS011;49042;47.318;19.874;2022-08-19T14:49:10;13.20;;;3.28;;
62941;SDS011;49042;47.318;19.874;2022-08-19T14:52:12;6.53;;;3.28;;
62941;SDS011;49042;47.318;19.874;2022-08-19T14:55:15;8.10;;;3.20;;
62941;SDS011;49042;47.318;19.874;2022-08-19T14:58:18;11.50;;;3.55;;
62941;SDS011;49042;47.318;19.874;2022-08-19T15:01:30;9.77;;;3.17;;
62941;SDS011;49042;47.318;19.874;2022-08-19T15:04:32;6.68;;;3.00;;
62941;SDS011;49042;47.318;19.874;2022-08-19T15:07:34;16.85;;;3.40;;
62941;SDS011;49042;47.318;19.874;2022-08-19T15:10:37;9.00;;;3.50;;
62941;SDS011;49042;47.318;19.874;2022-08-19T15:13:40;12.10;;;3.17;;
62941;SDS011;49042;47.318;19.874;2022-08-19T15:16:42;14.02;;;3.10;;
62941;SDS011;49042;47.318;19.874;2022-08-19T15:19:44;6.07;;;2.90;;
62941;SDS011;49042;47.318;19.874;2022-08-19T15:22:47;7.87;;;3.33;;
62941;SDS011;49042;47.318;19.874;2022-08-19T15:25:49;7.53;;;2.95;;
62941;SDS011;49042;47.318;19.874;2022-08-19T15:28:56;7.93;;;3.33;;
62941;SDS011;49042;47.318;19.874;2022-08-19T15:31:59;5.20;;;3.17;;
62941;SDS011;49042;47.318;19.874;2022-08-19T15:35:02;10.00;;;3.80;;
62941;SDS011;49042;47.318;19.874;2022-08-19T15:38:05;8.38;;;3.45;;
62941;SDS011;49042;47.318;19.874;2022-08-19T15:41:18;10.77;;;3.62;;
62941;SDS011;49042;47.318;19.874;2022-08-19T15:44:26;12.05;;;3.03;;
62941;SDS011;49042;47.318;19.874;2022-08-19T15:47:28;11.32;;;3.00;;
62941;SDS011;49042;47.318;19.874;2022-08-19T15:50:35;8.20;;;3.08;;
62941;SDS011;49042;47.318;19.874;2022-08-19T15:53:40;12.02;;;3.45;;
62941;SDS011;49042;47.318;19.874;2022-08-19T15:56:42;8.95;;;3.72;;
62941;SDS011;49042;47.318;19.874;2022-08-19T16:00:03;6.93;;;3.12;;
62941;SDS011;49042;47.318;19.874;2022-08-19T16:03:27;11.57;;;3.12;;
62941;SDS011;49042;47.318;19.874;2022-08-19T16:06:48;27.70;;;4.87;;
62941;SDS011;49042;47.318;19.874;2022-08-19T16:09:55;35.50;;;5.00;;
62941;SDS011;49042;47.318;19.874;2022-08-19T16:12:57;29.58;;;4.53;;
62941;SDS011;49042;47.318;19.874;2022-08-19T16:15:59;36.17;;;4.53;;
62941;SDS011;49042;47.318;19.874;2022-08-19T16:19:04;31.77;;;4.25;;
62941;SDS011;49042;47.318;19.874;2022-08-19T16:22:10;24.50;;;4.15;;
62941;SDS011;49042;47.318;19.874;2022-08-19T16:25:12;23.85;;;4.75;;
62941;SDS011;49042;47.318;19.874;2022-08-19T16:28:15;23.95;;;3.83;;
62941;SDS011;49042;47.318;19.874;2022-08-19T16:31:16;28.58;;;3.72;;
62941;SDS011;49042;47.318;19.874;2022-08-19T16:34:18;11.18;;;3.53;;
62941;SDS011;49042;47.318;19.874;2022-08-19T16:37:20;16.80;;;4.47;;
62941;SDS011;49042;47.318;19.874;2022-08-19T16:40:23;24.27;;;11.52;;
62941;SDS011;49042;47.318;19.874;2022-08-19T16:43:25;35.00;;;14.77;;
62941;SDS011;49042;47.318;19.874;2022-08-19T16:46:29;36.78;;;13.32;;
62941;SDS011;49042;47.318;19.874;2022-08-19T16:49:31;30.33;;;9.48;;
62941;SDS011;49042;47.318;19.874;2022-08-19T16:52:53;26.95;;;6.65;;
62941;SDS011;49042;47.318;19.874;2022-08-19T16:55:55;22.98;;;5.60;;
62941;SDS011;49042;47.318;19.874;2022-08-19T16:58:57;15.82;;;4.82;;
62941;SDS011;49042;47.318;19.874;2022-08-19T17:02:02;17.40;;;4.25;;
62941;SDS011;49042;47.318;19.874;2022-08-19T17:05:08;14.87;;;3.95;;
62941;SDS011;49042;47.318;19.874;2022-08-19T17:08:10;24.08;;;3.40;;
62941;SDS011;49042;47.318;19.874;2022-08-19T17:11:12;18.55;;;3.50;;
62941;SDS011;49042;47.318;19.874;2022-08-19T17:14:19;17.35;;;3.35;;
62941;SDS011;49042;47.318;19.874;2022-08-19T17:17:22;25.27;;;3.67;;
62941;SDS011;49042;47.318;19.874;2022-08-19T17:20:29;23.48;;;3.75;;
62941;SDS011;49042;47.318;19.874;2022-08-19T17:23:32;12.43;;;3.22;;
62941;SDS011;49042;47.318;19.874;2022-08-19T17:26:43;21.30;;;3.35;;
62941;SDS011;49042;47.318;19.874;2022-08-19T17:29:45;11.90;;;3.60;;
62941;SDS011;49042;47.318;19.874;2022-08-19T17:32:47;14.90;;;3.12;;
62941;SDS011;49042;47.318;19.874;2022-08-19T17:35:49;20.00;;;3.15;;
62941;SDS011;49042;47.318;19.874;2022-08-19T17:38:51;15.95;;;3.10;;
62941;SDS011;49042;47.318;19.874;2022-08-19T17:41:55;22.58;;;3.37;;
62941;SDS011;49042;47.318;19.874;2022-08-19T17:45:03;15.95;;;3.53;;
62941;SDS011;49042;47.318;19.874;2022-08-19T17:48:06;18.40;;;3.45;;
62941;SDS011;49042;47.318;19.874;2022-08-19T17:51:13;16.15;;;3.37;;
62941;SDS011;49042;47.318;19.874;2022-08-19T17:54:16;17.48;;;3.65;;
62941;SDS011;49042;47.318;19.874;2022-08-19T17:57:19;18.12;;;2.92;;
62941;SDS011;49042;47.318;19.874;2022-08-19T18:00:21;13.75;;;2.40;;
62941;SDS011;49042;47.318;19.874;2022-08-19T18:03:26;11.70;;;2.90;;
62941;SDS011;49042;47.318;19.874;2022-08-19T18:06:30;18.95;;;2.92;;
62941;SDS011;49042;47.318;19.874;2022-08-19T18:09:33;20.05;;;3.00;;
62941;SDS011;49042;47.318;19.874;2022-08-19T18:12:43;11.70;;;2.78;;
62941;SDS011;49042;47.318;19.874;2022-08-19T18:15:44;10.65;;;2.92;;
62941;SDS011;49042;47.318;19.874;2022-08-19T18:18:47;16.35;;;2.50;;
62941;SDS011;49042;47.318;19.874;2022-08-19T18:21:49;12.25;;;3.35;;